createdAt,value
2023-01-01T00:00:24.257Z,21.93
2023-01-01T00:02:52.158Z,21.93
2023-01-01T00:05:20.092Z,22.67
2023-01-01T00:07:47.935Z,24.83
2023-01-01T00:10:31.165Z,28.27
2023-01-01T00:13:01.077Z,24.93
2023-01-01T00:15:29.061Z,26.10
2023-01-01T00:17:57.842Z,27.17
2023-01-01T00:20:28.808Z,29.83
2023-01-01T00:23:01.434Z,27.50
2023-01-01T00:25:29.569Z,28.53
2023-01-01T00:27:57.568Z,24.37
2023-01-01T00:30:26.711Z,24.20
2023-01-01T00:32:56.062Z,25.67
2023-01-01T00:35:25.035Z,24.00
2023-01-01T00:37:54.026Z,27.33
2023-01-01T00:40:24.743Z,23.77
2023-01-01T00:42:52.931Z,20.77
2023-01-01T00:45:22.524Z,24.57
2023-01-01T00:47:53.573Z,24.80
2023-01-01T00:50:22.055Z,27.67
2023-01-01T00:52:50.697Z,27.67
2023-01-01T00:55:19.185Z,24.60
2023-01-01T00:57:47.005Z,21.47
2023-01-01T01:00:16.374Z,23.87
2023-01-01T01:02:44.214Z,23.97
2023-01-01T01:05:13.448Z,24.40
2023-01-01T01:07:41.645Z,27.03
2023-01-01T01:10:12.149Z,27.37
2023-01-01T01:12:40.147Z,25.13
2023-01-01T01:15:09.404Z,25.57
2023-01-01T01:17:37.419Z,28.43
2023-01-01T01:20:06.592Z,26.60
2023-01-01T01:22:35.901Z,28.57
2023-01-01T01:25:03.861Z,27.73
2023-01-01T01:27:31.755Z,28.70
2023-01-01T01:29:59.696Z,31.87
2023-01-01T01:32:27.520Z,36.07
2023-01-01T01:34:55.295Z,35.63
2023-01-01T01:37:23.232Z,35.90
2023-01-01T01:39:54.214Z,39.17
2023-01-01T01:42:23.171Z,39.80
2023-01-01T01:44:57.445Z,40.80
2023-01-01T01:47:30.446Z,43.27
2023-01-01T01:50:04.951Z,42.33
2023-01-01T01:52:37.314Z,48.70
2023-01-01T01:55:09.361Z,45.47
2023-01-01T01:57:39.665Z,48.50
2023-01-01T02:00:11.487Z,46.90
2023-01-01T02:02:46.321Z,46.23
2023-01-01T02:05:14.333Z,49.57
2023-01-01T02:07:42.597Z,53.37
2023-01-01T02:10:12.355Z,52.87
2023-01-01T02:12:40.354Z,51.00
2023-01-01T02:15:09.931Z,53.07
2023-01-01T02:17:45.229Z,53.40
2023-01-01T02:20:26.548Z,55.93
2023-01-01T02:23:18.311Z,54.80
2023-01-01T02:26:03.352Z,52.43
2023-01-01T02:28:46.116Z,47.83
2023-01-01T02:31:22.889Z,48.17
2023-01-01T02:33:54.272Z,45.37
2023-01-01T02:36:24.154Z,46.73
2023-01-01T02:38:55.930Z,48.37
2023-01-01T02:41:28.372Z,47.17
2023-01-01T02:46:33.384Z,46.37
2023-01-01T02:49:07.902Z,47.60
2023-01-01T02:51:47.618Z,52.77
2023-01-01T02:54:26.632Z,56.10
2023-01-01T02:57:05.109Z,53.50
2023-01-01T03:00:06.012Z,52.37
2023-01-01T03:02:50.950Z,52.83
2023-01-01T03:05:30.860Z,48.97
2023-01-01T03:08:09.980Z,50.30
2023-01-01T03:10:47.122Z,50.77
2023-01-01T03:13:21.706Z,47.23
2023-01-01T03:16:00.002Z,49.83
2023-01-01T03:18:34.785Z,44.13
2023-01-01T03:21:06.488Z,38.43
2023-01-01T03:23:49.894Z,33.73
2023-01-01T03:26:25.537Z,39.40
2023-01-01T03:28:59.310Z,32.47
2023-01-01T03:31:28.694Z,37.20
2023-01-01T03:34:02.057Z,31.17
2023-01-01T03:36:36.393Z,29.63
2023-01-01T03:39:11.026Z,24.83
2023-01-01T03:41:42.880Z,26.67
2023-01-01T03:44:18.451Z,25.63
2023-01-01T03:46:51.173Z,25.50
2023-01-01T03:49:19.743Z,25.13
2023-01-01T03:52:06.033Z,25.27
2023-01-01T03:54:46.733Z,23.37
2023-01-01T03:57:25.813Z,23.70
2023-01-01T04:00:03.763Z,24.83
2023-01-01T04:02:39.259Z,21.27
2023-01-01T04:05:11.200Z,19.40
2023-01-01T04:10:18.080Z,22.63
2023-01-01T04:12:49.446Z,20.63
2023-01-01T04:15:21.560Z,18.57
2023-01-01T04:17:54.852Z,19.23
2023-01-01T04:20:26.773Z,17.57
2023-01-01T04:22:56.997Z,19.10
2023-01-01T04:25:24.816Z,18.67
2023-01-01T04:27:52.633Z,19.77
2023-01-01T04:30:20.598Z,19.67
2023-01-01T04:32:49.792Z,18.00
2023-01-01T04:35:17.872Z,19.67
2023-01-01T04:37:46.177Z,18.13
2023-01-01T04:40:15.336Z,18.23
2023-01-01T04:42:44.240Z,16.17
2023-01-01T04:45:15.096Z,17.17
2023-01-01T04:47:43.332Z,17.63
2023-01-01T04:50:12.503Z,15.73
2023-01-01T04:52:40.293Z,16.83
2023-01-01T04:55:08.745Z,16.67
2023-01-01T04:57:36.489Z,16.23
2023-01-01T05:00:05.139Z,18.63
2023-01-01T05:02:32.955Z,19.63
2023-01-01T05:05:00.866Z,17.67
2023-01-01T05:07:30.003Z,18.47
2023-01-01T05:09:57.700Z,17.63
2023-01-01T05:12:25.562Z,17.73
2023-01-01T05:14:57.354Z,17.50
2023-01-01T05:17:28.611Z,15.67
2023-01-01T05:19:57.185Z,19.73
2023-01-01T05:22:25.047Z,17.20
2023-01-01T05:24:57.952Z,18.03
2023-01-01T05:27:25.740Z,15.60
2023-01-01T05:29:53.439Z,16.43
2023-01-01T05:32:21.190Z,16.07
2023-01-01T05:34:48.981Z,14.40
2023-01-01T05:37:16.767Z,13.70
2023-01-01T05:39:44.604Z,14.30
2023-01-01T05:42:15.470Z,12.93
2023-01-01T05:44:43.297Z,16.47
2023-01-01T05:47:11.031Z,15.97
2023-01-01T05:49:39.541Z,17.70
2023-01-01T05:52:07.286Z,17.50
2023-01-01T05:54:34.994Z,17.57
2023-01-01T05:57:02.755Z,18.13
2023-01-01T05:59:32.020Z,14.90
2023-01-01T06:01:59.911Z,15.47
2023-01-01T06:04:27.874Z,12.00
2023-01-01T06:06:55.720Z,14.30
2023-01-01T06:09:23.514Z,12.17
2023-01-01T06:11:51.298Z,12.27
2023-01-01T06:14:19.044Z,11.83
2023-01-01T06:16:48.239Z,15.77
2023-01-01T06:19:16.084Z,13.73
2023-01-01T06:21:43.793Z,12.47
2023-01-01T06:24:11.893Z,12.33
2023-01-01T06:26:39.711Z,10.57
2023-01-01T06:29:07.550Z,12.60
2023-01-01T06:31:40.463Z,11.43
2023-01-01T06:34:10.220Z,11.87
2023-01-01T06:36:37.994Z,10.70
2023-01-01T06:39:06.490Z,9.67
2023-01-01T06:41:34.385Z,9.67
2023-01-01T06:44:02.906Z,9.20
2023-01-01T06:46:32.522Z,12.10
2023-01-01T06:49:01.983Z,8.70
2023-01-01T06:51:32.514Z,11.83
2023-01-01T06:54:02.237Z,9.23
2023-01-01T06:56:30.497Z,10.03
2023-01-01T06:58:58.611Z,9.50
2023-01-01T07:01:29.086Z,12.07
2023-01-01T07:03:58.746Z,9.50
2023-01-01T07:06:27.771Z,10.47
2023-01-01T07:08:57.289Z,10.53
2023-01-01T07:11:25.803Z,9.27
2023-01-01T07:13:54.050Z,9.60
2023-01-01T07:16:22.839Z,10.47
2023-01-01T07:18:50.855Z,9.63
2023-01-01T07:21:41.527Z,10.37
2023-01-01T07:24:13.039Z,9.30
2023-01-01T07:26:41.044Z,10.13
2023-01-01T07:29:09.304Z,9.67
2023-01-01T07:31:38.574Z,9.90
2023-01-01T07:34:06.533Z,8.50
2023-01-01T07:36:34.821Z,9.53
2023-01-01T07:39:02.566Z,9.23
2023-01-01T07:41:31.724Z,7.97
2023-01-01T07:43:59.539Z,10.10
2023-01-01T07:46:27.466Z,10.60
2023-01-01T07:48:55.292Z,9.77
2023-01-01T07:51:23.050Z,8.73
2023-01-01T07:53:50.782Z,11.83
2023-01-01T07:56:18.845Z,9.57
2023-01-01T07:58:48.000Z,8.63
2023-01-01T08:01:16.070Z,6.57
2023-01-01T08:03:43.997Z,10.47
2023-01-01T08:06:13.892Z,9.33
2023-01-01T08:08:41.877Z,6.03
2023-01-01T08:11:10.213Z,7.93
2023-01-01T08:13:38.172Z,7.10
2023-01-01T08:16:08.388Z,8.60
2023-01-01T08:18:36.251Z,6.20
2023-01-01T08:21:04.998Z,6.33
2023-01-01T08:23:32.851Z,9.47
2023-01-01T08:26:02.133Z,6.40
2023-01-01T08:28:30.934Z,7.53
2023-01-01T08:30:59.316Z,4.77
2023-01-01T08:33:28.510Z,7.83
2023-01-01T08:35:56.412Z,7.23
2023-01-01T08:38:26.002Z,7.73
2023-01-01T08:40:54.150Z,6.23
2023-01-01T08:43:21.950Z,10.33
2023-01-01T08:45:49.656Z,5.93
2023-01-01T08:48:24.401Z,7.33
2023-01-01T08:51:00.850Z,8.03
2023-01-01T08:53:29.494Z,7.37
2023-01-01T08:56:01.562Z,6.90
2023-01-01T08:58:29.278Z,5.93
2023-01-01T09:00:59.321Z,5.27
2023-01-01T09:03:27.655Z,6.03
2023-01-01T09:05:55.937Z,7.20
2023-01-01T09:08:25.108Z,6.87
2023-01-01T09:10:53.967Z,5.10
2023-01-01T09:13:22.722Z,7.70
2023-01-01T09:15:50.768Z,8.80
2023-01-01T09:18:18.715Z,4.97
2023-01-01T09:20:46.600Z,6.33
2023-01-01T09:23:14.719Z,6.00
2023-01-01T09:25:44.047Z,4.13
2023-01-01T09:28:13.740Z,11.43
2023-01-01T09:30:45.593Z,5.67
2023-01-01T09:33:15.061Z,7.20
2023-01-01T09:35:45.141Z,4.90
2023-01-01T09:38:13.027Z,7.30
2023-01-01T09:40:52.345Z,6.83
2023-01-01T09:43:33.824Z,7.20
2023-01-01T09:46:03.574Z,7.50
2023-01-01T09:48:33.080Z,6.30
2023-01-01T09:51:04.357Z,7.77
2023-01-01T09:53:37.704Z,6.17
2023-01-01T09:56:12.180Z,5.23
2023-01-01T09:58:40.091Z,4.33
2023-01-01T10:01:18.226Z,4.73
2023-01-01T10:03:52.450Z,7.07
2023-01-01T10:06:25.441Z,9.97
2023-01-01T10:09:09.277Z,6.23
2023-01-01T10:11:46.598Z,5.37
2023-01-01T10:14:22.038Z,5.53
2023-01-01T10:16:53.548Z,5.90
2023-01-01T10:19:27.504Z,7.80
2023-01-01T10:21:59.090Z,5.70
2023-01-01T10:24:37.544Z,3.83
2023-01-01T10:27:07.324Z,7.60
2023-01-01T10:29:42.144Z,6.90
2023-01-01T10:32:19.973Z,6.57
2023-01-01T10:34:49.105Z,7.40
2023-01-01T10:37:19.334Z,5.10
2023-01-01T10:39:48.977Z,7.63
2023-01-01T10:42:20.305Z,7.07
2023-01-01T10:44:48.805Z,8.73
2023-01-01T10:47:29.378Z,5.03
2023-01-01T10:49:59.619Z,6.07
2023-01-01T10:52:35.567Z,4.93
2023-01-01T10:55:07.897Z,6.07
2023-01-01T10:57:40.387Z,6.33
2023-01-01T11:00:21.667Z,4.10
2023-01-01T11:03:06.367Z,6.03
2023-01-01T11:05:34.259Z,5.17
2023-01-01T11:08:02.435Z,5.70
2023-01-01T11:10:31.895Z,8.63
2023-01-01T11:13:05.869Z,4.07
2023-01-01T11:15:38.807Z,7.47
2023-01-01T11:18:08.869Z,7.50
2023-01-01T11:20:36.805Z,4.43
2023-01-01T11:23:29.299Z,6.67
2023-01-01T11:26:07.311Z,6.87
2023-01-01T11:28:37.477Z,14.97
2023-01-01T11:31:13.676Z,19.60
2023-01-01T11:33:46.871Z,6.07
2023-01-01T11:36:23.254Z,7.33
2023-01-01T11:39:04.397Z,3.70
2023-01-01T11:41:42.476Z,11.87
2023-01-01T11:44:15.240Z,4.07
2023-01-01T11:46:47.575Z,8.03
2023-01-01T11:49:22.057Z,4.77
2023-01-01T11:51:49.997Z,6.10
2023-01-01T11:54:33.133Z,7.67
2023-01-01T11:57:08.080Z,5.97
2023-01-01T11:59:46.805Z,5.47
2023-01-01T12:02:19.857Z,7.20
2023-01-01T12:04:54.406Z,6.00
2023-01-01T12:07:25.785Z,7.07
2023-01-01T12:10:01.571Z,6.17
2023-01-01T12:12:34.519Z,7.50
2023-01-01T12:15:08.128Z,8.80
2023-01-01T12:17:40.912Z,5.30
2023-01-01T12:20:21.309Z,5.53
2023-01-01T12:22:49.991Z,6.53
2023-01-01T12:25:20.748Z,5.40
2023-01-01T12:28:02.102Z,8.57
2023-01-01T12:30:45.425Z,11.67
2023-01-01T12:33:24.702Z,6.40
2023-01-01T12:36:05.037Z,5.80
2023-01-01T12:38:47.595Z,6.17
2023-01-01T12:41:28.973Z,4.77
2023-01-01T12:44:07.520Z,6.83
2023-01-01T12:46:49.220Z,4.93
2023-01-01T12:49:43.397Z,7.33
2023-01-01T12:52:26.882Z,5.93
2023-01-01T12:55:28.560Z,8.27
2023-01-01T12:58:04.479Z,5.17
2023-01-01T13:00:33.612Z,8.03
2023-01-01T13:03:09.126Z,7.90
2023-01-01T13:05:39.393Z,9.17
2023-01-01T13:08:08.608Z,6.80
2023-01-01T13:10:39.966Z,5.33
2023-01-01T13:13:08.652Z,3.87
2023-01-01T13:15:50.806Z,12.27
2023-01-01T13:18:24.863Z,8.73
2023-01-01T13:21:03.368Z,3.43
2023-01-01T13:23:48.888Z,9.03
2023-01-01T13:26:36.965Z,4.60
2023-01-01T13:29:31.602Z,7.30
2023-01-01T13:32:07.311Z,10.43
2023-01-01T13:34:58.694Z,5.33
2023-01-01T13:37:28.458Z,5.00
2023-01-01T13:39:57.902Z,6.43
2023-01-01T13:42:43.924Z,4.83
2023-01-01T13:45:44.102Z,6.87
2023-01-01T13:48:20.867Z,9.63
2023-01-01T13:51:00.031Z,6.20
2023-01-01T13:53:45.368Z,7.03
2023-01-01T13:56:38.960Z,7.70
2023-01-01T13:59:25.722Z,5.70
2023-01-01T14:02:10.747Z,9.17
2023-01-01T14:04:44.413Z,7.80
2023-01-01T14:07:49.599Z,6.63
2023-01-01T14:10:21.627Z,10.23
2023-01-01T14:12:50.057Z,10.97
2023-01-01T14:15:25.335Z,4.23
2023-01-01T14:17:54.670Z,7.37
2023-01-01T14:20:24.909Z,9.90
2023-01-01T14:22:54.677Z,4.40
2023-01-01T14:25:28.729Z,7.00
2023-01-01T14:27:59.414Z,6.33
2023-01-01T14:30:27.928Z,7.53
2023-01-01T14:32:59.591Z,7.87
2023-01-01T14:35:28.367Z,11.00
2023-01-01T14:37:58.060Z,9.80
2023-01-01T14:40:28.730Z,5.27
2023-01-01T14:43:01.432Z,5.90
2023-01-01T14:45:30.953Z,8.13
2023-01-01T14:48:03.138Z,6.93
2023-01-01T14:50:32.503Z,6.83
2023-01-01T14:53:06.170Z,7.63
2023-01-01T14:55:40.351Z,6.13
2023-01-01T14:58:14.711Z,6.90
2023-01-01T15:00:42.594Z,7.93
2023-01-01T15:03:14.885Z,6.90
2023-01-01T15:05:43.886Z,6.00
2023-01-01T15:08:24.581Z,5.67
2023-01-01T15:10:53.730Z,7.80
2023-01-01T15:13:23.718Z,7.23
2023-01-01T15:15:53.635Z,6.77
2023-01-01T15:18:37.426Z,9.70
2023-01-01T15:21:08.746Z,7.00
2023-01-01T15:23:38.464Z,5.67
2023-01-01T15:26:10.386Z,5.47
2023-01-01T15:28:39.431Z,10.30
2023-01-01T15:31:07.533Z,4.53
2023-01-01T15:33:35.581Z,6.47
2023-01-01T15:36:04.011Z,7.00
2023-01-01T15:38:36.386Z,8.60
2023-01-01T15:41:30.590Z,6.07
2023-01-01T15:44:08.901Z,6.40
2023-01-01T15:46:47.333Z,5.03
2023-01-01T15:49:27.484Z,9.87
2023-01-01T15:52:00.756Z,10.50
2023-01-01T15:54:29.549Z,5.93
2023-01-01T15:56:59.355Z,6.60
2023-01-01T15:59:30.494Z,7.07
2023-01-01T16:02:12.303Z,9.47
2023-01-01T16:04:41.126Z,6.20
2023-01-01T16:07:17.769Z,5.93
2023-01-01T16:09:45.959Z,6.17
2023-01-01T16:12:15.130Z,8.50
2023-01-01T16:14:43.349Z,6.10
2023-01-01T16:17:15.072Z,7.77
2023-01-01T16:19:43.457Z,6.50
2023-01-01T16:22:15.594Z,6.50
2023-01-01T16:24:43.917Z,6.83
2023-01-01T16:27:11.929Z,8.80
2023-01-01T16:29:43.511Z,10.87
2023-01-01T16:32:17.890Z,8.60
2023-01-01T16:34:45.887Z,7.17
2023-01-01T16:37:13.796Z,9.80
2023-01-01T16:39:41.928Z,7.23
2023-01-01T16:42:13.951Z,6.37
2023-01-01T16:44:43.780Z,6.93
2023-01-01T16:47:12.165Z,6.93
2023-01-01T16:49:40.043Z,7.53
2023-01-01T16:52:11.113Z,9.70
2023-01-01T16:54:40.157Z,7.40
2023-01-01T16:57:08.172Z,8.97
2023-01-01T16:59:36.103Z,10.97
2023-01-01T17:02:05.834Z,8.93
2023-01-01T17:04:35.188Z,7.00
2023-01-01T17:07:03.205Z,8.97
2023-01-01T17:09:34.808Z,10.60
2023-01-01T17:12:02.770Z,7.17
2023-01-01T17:14:30.721Z,6.50
2023-01-01T17:16:58.907Z,8.67
2023-01-01T17:19:28.123Z,8.77
2023-01-01T17:21:58.921Z,6.03
2023-01-01T17:24:27.003Z,9.97
2023-01-01T17:26:56.373Z,9.93
2023-01-01T17:29:25.773Z,13.13
2023-01-01T17:31:54.646Z,11.47
2023-01-01T17:34:22.460Z,14.23
2023-01-01T17:36:51.669Z,15.43
2023-01-01T17:39:19.495Z,13.43
2023-01-01T17:41:47.256Z,11.83
2023-01-01T17:44:15.240Z,12.67
2023-01-01T17:46:44.282Z,12.10
2023-01-01T17:49:12.516Z,16.17
2023-01-01T17:51:40.422Z,22.47
2023-01-01T17:54:13.787Z,15.97
2023-01-01T17:56:42.084Z,18.90
2023-01-01T17:59:10.429Z,17.23
2023-01-01T18:01:38.549Z,18.20
2023-01-01T18:04:08.253Z,14.13
2023-01-01T18:06:42.101Z,17.10
2023-01-01T18:09:14.642Z,14.47
2023-01-01T18:11:43.456Z,17.50
2023-01-01T18:14:12.504Z,17.03
2023-01-01T18:16:42.484Z,13.00
2023-01-01T18:19:10.553Z,18.63
2023-01-01T18:21:38.471Z,18.83
2023-01-01T18:24:11.842Z,13.23
2023-01-01T18:26:41.165Z,15.83
2023-01-01T18:29:09.057Z,12.70
2023-01-01T18:31:37.008Z,26.60
2023-01-01T18:34:06.737Z,18.47
2023-01-01T18:36:35.691Z,16.23
2023-01-01T18:39:10.986Z,15.63
2023-01-01T18:42:19.115Z,15.53
2023-01-01T18:44:47.282Z,21.10
2023-01-01T18:47:18.541Z,19.93
2023-01-01T18:49:50.171Z,24.60
2023-01-01T18:52:22.765Z,22.83
2023-01-01T18:54:58.015Z,15.83
2023-01-01T18:57:29.739Z,21.37
2023-01-01T19:00:00.393Z,18.77
2023-01-01T19:02:36.093Z,19.27
2023-01-01T19:05:16.761Z,24.93
2023-01-01T19:07:46.530Z,22.30
2023-01-01T19:10:15.232Z,24.53
2023-01-01T19:12:45.039Z,17.30
2023-01-01T19:15:18.129Z,22.23
2023-01-01T19:17:46.343Z,17.77
2023-01-01T19:20:19.486Z,19.23
2023-01-01T19:22:47.826Z,23.30
2023-01-01T19:25:36.994Z,21.97
2023-01-01T19:28:34.800Z,19.63
2023-01-01T19:31:04.288Z,20.07
2023-01-01T19:33:32.551Z,23.00
2023-01-01T19:36:00.460Z,28.90
2023-01-01T19:38:28.481Z,23.90
2023-01-01T19:40:56.613Z,21.97
2023-01-01T19:43:24.428Z,25.23
2023-01-01T19:45:53.591Z,29.07
2023-01-01T19:48:21.591Z,19.30
2023-01-01T19:50:49.480Z,21.43
2023-01-01T19:53:17.699Z,21.33
2023-01-01T19:55:45.678Z,17.20
2023-01-01T19:58:13.789Z,15.87
2023-01-01T20:00:41.751Z,18.63
2023-01-01T20:03:51.606Z,18.20
2023-01-01T20:05:59.485Z,15.67
2023-01-01T20:08:28.600Z,16.70
2023-01-01T20:10:56.602Z,14.63
2023-01-01T20:13:24.654Z,15.53
2023-01-01T20:15:53.144Z,18.17
2023-01-01T20:18:22.833Z,15.87
2023-01-01T20:21:08.122Z,12.20
2023-01-01T20:23:36.028Z,16.07
2023-01-01T20:26:05.132Z,17.33
2023-01-01T20:28:50.892Z,15.50
2023-01-01T20:31:18.982Z,16.50
2023-01-01T20:33:51.432Z,16.00
2023-01-01T20:36:37.716Z,16.90
2023-01-01T20:39:05.674Z,19.53
2023-01-01T20:41:33.512Z,14.83
2023-01-01T20:44:02.529Z,18.03
2023-01-01T20:46:30.849Z,14.53
2023-01-01T20:49:00.256Z,13.77
2023-01-01T20:51:28.815Z,17.83
2023-01-01T20:53:56.682Z,16.20
2023-01-01T20:56:24.615Z,11.67
2023-01-01T20:58:59.006Z,11.10
2023-01-01T21:01:27.688Z,12.67
2023-01-01T21:03:55.930Z,15.90
2023-01-01T21:06:25.377Z,14.90
2023-01-01T21:08:53.800Z,10.60
2023-01-01T21:11:22.061Z,12.93
2023-01-01T21:13:51.693Z,13.60
2023-01-01T21:16:23.575Z,12.70
2023-01-01T21:18:52.933Z,16.10
2023-01-01T21:21:24.044Z,12.73
2023-01-01T21:23:58.633Z,10.80
2023-01-01T21:26:28.679Z,14.77
2023-01-01T21:29:01.140Z,10.20
2023-01-01T21:31:37.753Z,12.07
2023-01-01T21:34:18.241Z,17.97
2023-01-01T21:36:46.519Z,15.13
2023-01-01T21:39:18.180Z,11.03
2023-01-01T21:41:46.932Z,17.97
2023-01-01T21:44:16.750Z,12.77
2023-01-01T21:46:54.256Z,16.20
2023-01-01T21:49:30.533Z,12.17
2023-01-01T21:52:00.650Z,15.00
2023-01-01T21:54:34.649Z,14.83
2023-01-01T21:57:14.749Z,16.90
2023-01-01T21:59:44.601Z,13.33
2023-01-01T22:02:33.035Z,11.43
2023-01-01T22:05:03.701Z,14.60
2023-01-01T22:10:28.945Z,14.00
2023-01-01T22:12:59.957Z,14.43
2023-01-01T22:15:37.682Z,12.93
2023-01-01T22:18:25.146Z,11.77
2023-01-01T22:20:53.761Z,14.60
2023-01-01T22:23:29.068Z,12.80
2023-01-01T22:25:58.406Z,14.50
2023-01-01T22:28:28.149Z,15.87
2023-01-01T22:31:02.517Z,16.57
2023-01-01T22:33:37.837Z,21.00
2023-01-01T22:36:14.150Z,15.63
2023-01-01T22:38:42.096Z,16.67
2023-01-01T22:41:12.870Z,18.40
2023-01-01T22:43:43.724Z,16.67
2023-01-01T22:46:17.994Z,16.40
2023-01-01T22:48:45.937Z,18.53
2023-01-01T22:51:19.254Z,20.03
2023-01-01T22:53:47.132Z,17.23
2023-01-01T22:56:16.302Z,19.57
2023-01-01T22:58:44.092Z,15.77
2023-01-01T23:01:12.364Z,16.07
2023-01-01T23:03:40.225Z,24.00
2023-01-01T23:06:08.494Z,24.83
2023-01-01T23:08:36.543Z,24.73
2023-01-01T23:11:04.378Z,22.13
2023-01-01T23:13:51.302Z,24.43
2023-01-01T23:16:19.077Z,24.07
2023-01-01T23:18:46.982Z,21.27
2023-01-01T23:21:26.053Z,15.40
2023-01-01T23:23:56.441Z,14.37
2023-01-01T23:26:25.183Z,17.67
2023-01-01T23:28:55.659Z,19.50
2023-01-01T23:31:27.003Z,25.60
2023-01-01T23:33:55.942Z,19.50
2023-01-01T23:36:24.143Z,25.67
2023-01-01T23:38:52.013Z,21.47
2023-01-01T23:41:19.954Z,21.47
2023-01-01T23:43:47.744Z,22.97
2023-01-01T23:46:18.443Z,23.67
2023-01-01T23:48:47.424Z,22.73
2023-01-01T23:51:16.213Z,24.97
2023-01-01T23:53:43.974Z,21.57
2023-01-01T23:56:12.135Z,21.83
2023-01-01T23:58:40.068Z,24.30
